PWSweather.com
Personal Weather Stations
Station Observations
TOWARDSSIXOAKS
Forrest, Sankt IngbertDE 66386

ForrestSankt IngbertDE 66386

Lat: 49.293698, Lon: 7.096075

Elevation: 728.3465

Station Type: WH 3080

Latest ConditionsUpdated 4:03:58 PM GMT+01:01 Tuesday, Apr 23, 2019
Currently Today's Max Today's Min Today's Average
Temperature 68.7°F20.4°C 69.8°F21.0°C 53.2°F11.8°C 60.9°F16.1°C
Dew Point 45.3°F7.4°C 46.7°F8.2°C 34.5°F1.4°C 42.2°F5.7°C
Winds 1.0 mph NW1.6 kmh NW 3.0 mph -4.8 kmh - - 0.6 mph 1.0 kmh
Wind Gusts 1.6 mph2.6 kmh 3.8 mph6.1 kmh - -
Humidity 43% 57% 42% 51%
Pressure 29.25 in990.5 mb 29.31 in992.6 mb 29.25 in990.5 mb -
Hour Temp Dew Point Humidity Winds Wind Gusts Pressure Precip Precip Rate Daily Precip Total
04:03 PM 68.7°F20.4°C 45.3°F7.4°C 43% 1.0 mph NW1.6 kmh NW 1.6 mph2.6 kmh 29.25 in990.5 mb 0.00 in0.0 mm 0.00 in0.0 mm 0.00 in0.0 mm
03:53 PM 69.1°F20.6°C 45.6°F7.6°C 43% 1.0 mph NW1.6 kmh NW 1.6 mph2.6 kmh 29.25 in990.5 mb 0.00 in0.0 mm 0.00 in0.0 mm 0.00 in0.0 mm
03:43 PM 69.3°F20.7°C 46.4°F8.0°C 44% 1.0 mph NW1.6 kmh NW 1.6 mph2.6 kmh 29.25 in990.5 mb 0.00 in0.0 mm 0.00 in0.0 mm 0.00 in0.0 mm
03:33 PM 69.4°F20.8°C 45.3°F7.4°C 42% Calm Calm -- 29.25 in990.5 mb 0.00 in0.0 mm 0.00 in0.0 mm 0.00 in0.0 mm
03:23 PM 69.8°F21.0°C 45.7°F7.6°C 42% Calm Calm 1.6 mph2.6 kmh 29.25 in990.5 mb 0.00 in0.0 mm 0.00 in0.0 mm 0.00 in0.0 mm
03:13 PM 69.8°F21.0°C 45.7°F7.6°C 42% Calm Calm 0.7 mph1.1 kmh 29.25 in990.5 mb 0.00 in0.0 mm 0.00 in0.0 mm 0.00 in0.0 mm
03:03 PM 69.6°F20.9°C 46.7°F8.2°C 44% Calm Calm 1.6 mph2.6 kmh 29.26 in990.9 mb 0.00 in0.0 mm 0.00 in0.0 mm 0.00 in0.0 mm
02:53 PM 69.4°F20.8°C 46.0°F7.8°C 43% 1.0 mph NW1.6 kmh NW 1.6 mph2.6 kmh 29.26 in990.9 mb 0.00 in0.0 mm 0.00 in0.0 mm 0.00 in0.0 mm
02:43 PM 69.3°F20.7°C 45.8°F7.7°C 43% Calm Calm 0.7 mph1.1 kmh 29.25 in990.5 mb 0.00 in0.0 mm 0.00 in0.0 mm 0.00 in0.0 mm
02:33 PM 68.4°F20.2°C 45.6°F7.6°C 44% Calm Calm 1.6 mph2.6 kmh 29.26 in990.9 mb 0.00 in0.0 mm 0.00 in0.0 mm 0.00 in0.0 mm
02:23 PM 67.6°F19.8°C 44.3°F6.8°C 43% Calm Calm 1.6 mph2.6 kmh 29.26 in990.9 mb 0.00 in0.0 mm 0.00 in0.0 mm 0.00 in0.0 mm
02:13 PM 67.1°F19.5°C 45.6°F7.6°C 46% Calm Calm 0.7 mph1.1 kmh 29.26 in990.9 mb 0.00 in0.0 mm 0.00 in0.0 mm 0.00 in0.0 mm
02:03 PM 66.2°F19.0°C 46.5°F8.1°C 49% Calm Calm 1.6 mph2.6 kmh 29.27 in991.2 mb 0.00 in0.0 mm 0.00 in0.0 mm 0.00 in0.0 mm
01:53 PM 64.9°F18.3°C 45.8°F7.7°C 50% 1.0 mph NW1.6 kmh NW 1.6 mph2.6 kmh 29.27 in991.2 mb 0.00 in0.0 mm 0.00 in0.0 mm 0.00 in0.0 mm
01:43 PM 64.0°F17.8°C 45.0°F7.2°C 50% Calm Calm 1.6 mph2.6 kmh 29.27 in991.2 mb 0.00 in0.0 mm 0.00 in0.0 mm 0.00 in0.0 mm
01:33 PM 63.9°F17.7°C 44.9°F7.2°C 50% Calm Calm 0.7 mph1.1 kmh 29.27 in991.2 mb 0.00 in0.0 mm 0.00 in0.0 mm 0.00 in0.0 mm
01:23 PM 63.7°F17.6°C 44.2°F6.8°C 49% Calm Calm 2.2 mph3.5 kmh 29.27 in991.2 mb 0.00 in0.0 mm 0.00 in0.0 mm 0.00 in0.0 mm
01:13 PM 63.7°F17.6°C 44.2°F6.8°C 49% 1.0 mph NW1.6 kmh NW 2.2 mph3.5 kmh 29.27 in991.2 mb 0.00 in0.0 mm 0.00 in0.0 mm 0.00 in0.0 mm
01:03 PM 63.7°F17.6°C 43.6°F6.4°C 48% 1.0 mph 1.6 kmh 1.6 mph2.6 kmh 29.26 in990.9 mb 0.00 in0.0 mm 0.00 in0.0 mm 0.00 in0.0 mm
12:53 PM 63.5°F17.5°C 43.5°F6.4°C 48% Calm Calm 1.6 mph2.6 kmh 29.26 in990.9 mb 0.00 in0.0 mm 0.00 in0.0 mm 0.00 in0.0 mm
12:43 PM 63.3°F17.4°C 45.4°F7.4°C 52% Calm Calm 2.2 mph3.5 kmh 29.26 in990.9 mb 0.00 in0.0 mm 0.00 in0.0 mm 0.00 in0.0 mm
12:33 PM 63.1°F17.3°C 45.2°F7.3°C 52% Calm Calm 0.7 mph1.1 kmh 29.26 in990.9 mb 0.00 in0.0 mm 0.00 in0.0 mm 0.00 in0.0 mm
12:23 PM 63.0°F17.2°C 45.1°F7.3°C 52% Calm Calm 2.2 mph3.5 kmh 29.26 in990.9 mb 0.00 in0.0 mm 0.00 in0.0 mm 0.00 in0.0 mm
12:13 PM 62.8°F17.1°C 44.4°F6.9°C 51% Calm Calm 1.6 mph2.6 kmh 29.26 in990.9 mb 0.00 in0.0 mm 0.00 in0.0 mm 0.00 in0.0 mm
12:03 PM 62.6°F17.0°C 44.7°F7.1°C 52% Calm Calm 2.2 mph3.5 kmh 29.26 in990.9 mb 0.00 in0.0 mm 0.00 in0.0 mm 0.00 in0.0 mm
11:53 AM 62.4°F16.9°C 44.0°F6.7°C 51% Calm Calm 2.2 mph3.5 kmh 29.26 in990.9 mb 0.00 in0.0 mm 0.00 in0.0 mm 0.00 in0.0 mm
11:43 AM 62.2°F16.8°C 43.9°F6.6°C 51% 1.0 mph NW1.6 kmh NW 1.6 mph2.6 kmh 29.26 in990.9 mb 0.00 in0.0 mm 0.00 in0.0 mm 0.00 in0.0 mm
11:33 AM 62.1°F16.7°C 43.7°F6.5°C 51% Calm Calm 1.6 mph2.6 kmh 29.26 in990.9 mb 0.00 in0.0 mm 0.00 in0.0 mm 0.00 in0.0 mm
11:23 AM 62.2°F16.8°C 43.9°F6.6°C 51% Calm Calm 1.6 mph2.6 kmh 29.26 in990.9 mb 0.00 in0.0 mm 0.00 in0.0 mm 0.00 in0.0 mm
11:13 AM 62.1°F16.7°C 43.7°F6.5°C 51% Calm Calm 1.6 mph2.6 kmh 29.26 in990.9 mb 0.00 in0.0 mm 0.00 in0.0 mm 0.00 in0.0 mm
11:03 AM 62.1°F16.7°C 43.7°F6.5°C 51% Calm Calm 1.6 mph2.6 kmh 29.26 in990.9 mb 0.00 in0.0 mm 0.00 in0.0 mm 0.00 in0.0 mm
10:53 AM 62.1°F16.7°C 43.7°F6.5°C 51% Calm Calm 0.7 mph1.1 kmh 29.26 in990.9 mb 0.00 in0.0 mm 0.00 in0.0 mm 0.00 in0.0 mm
10:43 AM 61.7°F16.5°C 43.4°F6.3°C 51% 1.0 mph SSW1.6 kmh SSW 1.6 mph2.6 kmh 29.27 in991.2 mb 0.00 in0.0 mm 0.00 in0.0 mm 0.00 in0.0 mm
10:33 AM 61.7°F16.5°C 43.9°F6.6°C 52% 1.0 mph NW1.6 kmh NW 2.2 mph3.5 kmh 29.27 in991.2 mb 0.00 in0.0 mm 0.00 in0.0 mm 0.00 in0.0 mm
10:23 AM 61.7°F16.5°C 43.4°F6.3°C 51% 2.0 mph NW3.2 kmh NW 2.2 mph3.5 kmh 29.27 in991.2 mb 0.00 in0.0 mm 0.00 in0.0 mm 0.00 in0.0 mm
10:13 AM 60.4°F15.8°C 42.7°F5.9°C 52% 1.0 mph W1.6 kmh W 2.2 mph3.5 kmh 29.26 in990.9 mb 0.00 in0.0 mm 0.00 in0.0 mm 0.00 in0.0 mm
10:03 AM 59.5°F15.3°C 41.9°F5.5°C 52% 2.0 mph SW3.2 kmh SW 2.2 mph3.5 kmh 29.27 in991.2 mb 0.00 in0.0 mm 0.00 in0.0 mm 0.00 in0.0 mm
09:53 AM 58.8°F14.9°C 41.2°F5.1°C 52% Calm Calm 1.6 mph2.6 kmh 29.27 in991.2 mb 0.00 in0.0 mm 0.00 in0.0 mm 0.00 in0.0 mm
09:43 AM 58.5°F14.7°C 41.4°F5.2°C 53% Calm Calm 3.1 mph5.0 kmh 29.27 in991.2 mb 0.00 in0.0 mm 0.00 in0.0 mm 0.00 in0.0 mm
09:33 AM 58.1°F14.5°C 41.5°F5.3°C 54% Calm Calm 3.1 mph5.0 kmh 29.27 in991.2 mb 0.00 in0.0 mm 0.00 in0.0 mm 0.00 in0.0 mm
09:23 AM 57.6°F14.2°C 41.0°F5.0°C 54% Calm Calm 1.6 mph2.6 kmh 29.27 in991.2 mb 0.00 in0.0 mm 0.00 in0.0 mm 0.00 in0.0 mm
09:13 AM 57.2°F14.0°C 39.7°F4.3°C 52% 1.0 mph NNW1.6 kmh NNW 1.6 mph2.6 kmh 29.27 in991.2 mb 0.00 in0.0 mm 0.00 in0.0 mm 0.00 in0.0 mm
09:03 AM 57.0°F13.9°C 40.5°F4.7°C 54% 1.0 mph NNW1.6 kmh NNW 2.2 mph3.5 kmh 29.26 in990.9 mb 0.00 in0.0 mm 0.00 in0.0 mm 0.00 in0.0 mm
08:53 AM 56.7°F13.7°C 39.7°F4.3°C 53% 1.0 mph SW1.6 kmh SW 2.2 mph3.5 kmh 29.27 in991.2 mb 0.00 in0.0 mm 0.00 in0.0 mm 0.00 in0.0 mm
08:43 AM 56.3°F13.5°C 39.4°F4.1°C 53% 1.0 mph NW1.6 kmh NW 2.2 mph3.5 kmh 29.27 in991.2 mb 0.00 in0.0 mm 0.00 in0.0 mm 0.00 in0.0 mm
08:33 AM 55.6°F13.1°C 39.2°F4.0°C 54% Calm Calm 2.2 mph3.5 kmh 29.27 in991.2 mb 0.00 in0.0 mm 0.00 in0.0 mm 0.00 in0.0 mm
08:23 AM 55.0°F12.8°C 38.2°F3.4°C 53% 2.0 mph 3.2 kmh 2.2 mph3.5 kmh 29.27 in991.2 mb 0.00 in0.0 mm 0.00 in0.0 mm 0.00 in0.0 mm
08:13 AM 54.7°F12.6°C 37.9°F3.3°C 53% 1.0 mph NNW1.6 kmh NNW 2.2 mph3.5 kmh 29.27 in991.2 mb 0.00 in0.0 mm 0.00 in0.0 mm 0.00 in0.0 mm
08:03 AM 54.1°F12.3°C 39.2°F4.0°C 57% 2.0 mph NNW3.2 kmh NNW 3.8 mph6.1 kmh 29.27 in991.2 mb 0.00 in0.0 mm 0.00 in0.0 mm 0.00 in0.0 mm
07:53 AM 54.0°F12.2°C 38.6°F3.7°C 56% 3.0 mph W4.8 kmh W 3.8 mph6.1 kmh 29.27 in991.2 mb 0.00 in0.0 mm 0.00 in0.0 mm 0.00 in0.0 mm
07:43 AM 53.8°F12.1°C 38.9°F3.8°C 57% 1.0 mph WNW1.6 kmh WNW 1.6 mph2.6 kmh 29.27 in991.2 mb 0.00 in0.0 mm 0.00 in0.0 mm 0.00 in0.0 mm
07:33 AM 53.6°F12.0°C 38.7°F3.7°C 57% Calm Calm 2.2 mph3.5 kmh 29.28 in991.5 mb 0.00 in0.0 mm 0.00 in0.0 mm 0.00 in0.0 mm
07:23 AM 53.6°F12.0°C 38.3°F3.5°C 56% Calm Calm 3.8 mph6.1 kmh 29.27 in991.2 mb 0.00 in0.0 mm 0.00 in0.0 mm 0.00 in0.0 mm
07:13 AM 53.4°F11.9°C 38.1°F3.4°C 56% 3.0 mph 4.8 kmh 3.8 mph6.1 kmh 29.28 in991.5 mb 0.00 in0.0 mm 0.00 in0.0 mm 0.00 in0.0 mm
07:03 AM 53.2°F11.8°C 37.5°F3.1°C 55% 1.0 mph W1.6 kmh W 2.2 mph3.5 kmh 29.27 in991.2 mb 0.00 in0.0 mm 0.00 in0.0 mm 0.00 in0.0 mm
06:53 AM 53.2°F11.8°C 37.5°F3.1°C 55% Calm Calm 2.2 mph3.5 kmh 29.27 in991.2 mb 0.00 in0.0 mm 0.00 in0.0 mm 0.00 in0.0 mm
06:43 AM 53.2°F11.8°C 37.5°F3.1°C 55% 1.0 mph NW1.6 kmh NW 2.2 mph3.5 kmh 29.27 in991.2 mb 0.00 in0.0 mm 0.00 in0.0 mm 0.00 in0.0 mm
06:33 AM 53.2°F11.8°C 37.0°F2.8°C 54% 1.0 mph SE1.6 kmh SE 2.2 mph3.5 kmh 29.28 in991.5 mb 0.00 in0.0 mm 0.00 in0.0 mm 0.00 in0.0 mm
06:23 AM 53.2°F11.8°C 37.0°F2.8°C 54% 2.0 mph 3.2 kmh 2.2 mph3.5 kmh 29.28 in991.5 mb 0.00 in0.0 mm 0.00 in0.0 mm 0.00 in0.0 mm
06:13 AM 53.4°F11.9°C 36.7°F2.6°C 53% Calm Calm 2.2 mph3.5 kmh 29.28 in991.5 mb 0.00 in0.0 mm 0.00 in0.0 mm 0.00 in0.0 mm
06:03 AM 53.6°F12.0°C 36.9°F2.7°C 53% 1.0 mph W1.6 kmh W 2.2 mph3.5 kmh 29.28 in991.5 mb 0.00 in0.0 mm 0.00 in0.0 mm 0.00 in0.0 mm
03:41 AM 56.1°F13.4°C 34.5°F1.4°C 44% Calm Calm 0.7 mph1.1 kmh 29.31 in992.6 mb 0.00 in0.0 mm 0.00 in0.0 mm 0.00 in0.0 mm